Time;durP1;ratioP1;P1;durP2;ratioP2;P2;SDS_P1;SDS_P2;PMS_P1;PMS_P2;Temp;Humidity;BMP_temperature;BMP_pressure;BME280_temperature;BME280_humidity;BME280_pressure;Samples;Min_cycle;Max_cycle;Signal;HPM_P1;HPM_P2
2023/07/29 00:01:31;;;;;;;4.53;3.50;;;20.60;93.40;;;;;;5074210;28;20021;-77
2023/07/29 00:03:56;;;;;;;7.68;3.40;;;20.60;93.40;;;;;;5058176;28;20028;-77
2023/07/29 00:06:23;;;;;;;5.47;3.17;;;20.60;93.40;;;;;;5075627;28;20029;-77
2023/07/29 00:08:49;;;;;;;7.28;3.25;;;20.60;93.30;;;;;;5074558;28;20028;-77
2023/07/29 00:11:14;;;;;;;4.80;3.15;;;20.50;93.30;;;;;;5057887;28;20033;-77
2023/07/29 00:13:40;;;;;;;6.15;3.35;;;20.50;93.40;;;;;;5074502;28;20052;-77
2023/07/29 00:16:06;;;;;;;4.25;3.15;;;20.50;93.50;;;;;;5075467;28;20029;-77
2023/07/29 00:18:32;;;;;;;4.90;3.30;;;20.50;93.80;;;;;;5074665;28;20053;-77
2023/07/29 00:20:57;;;;;;;4.68;3.03;;;20.60;93.40;;;;;;5075505;28;20025;-77
2023/07/29 00:23:23;;;;;;;4.88;3.40;;;20.60;93.20;;;;;;5074264;28;20041;-77
2023/07/29 00:25:48;;;;;;;4.30;3.10;;;20.60;93.10;;;;;;5074419;28;20024;-77
2023/07/29 00:28:14;;;;;;;6.80;3.42;;;20.60;93.10;;;;;;5074928;28;20029;-77
2023/07/29 00:30:40;;;;;;;5.95;3.60;;;20.60;93.00;;;;;;5074305;28;20084;-75
2023/07/29 00:33:05;;;;;;;5.43;3.90;;;20.60;93.00;;;;;;5057592;28;20112;-76
2023/07/29 00:35:31;;;;;;;5.53;3.67;;;20.60;93.10;;;;;;5074981;28;20029;-75
2023/07/29 00:37:56;;;;;;;5.47;3.40;;;20.60;93.10;;;;;;5074123;28;20476;-75
2023/07/29 00:40:22;;;;;;;5.63;3.20;;;20.60;93.00;;;;;;5073956;28;20021;-75
2023/07/29 00:42:49;;;;;;;4.70;3.67;;;20.60;92.90;;;;;;5074928;28;20090;-76
2023/07/29 00:45:15;;;;;;;6.90;3.53;;;20.50;92.70;;;;;;5074930;28;20088;-75
2023/07/29 00:47:42;;;;;;;6.20;3.80;;;20.30;92.80;;;;;;5057203;28;20496;-75
2023/07/29 00:50:10;;;;;;;5.97;3.42;;;20.20;93.00;;;;;;5057100;28;20105;-75
2023/07/29 00:52:35;;;;;;;5.68;3.60;;;20.20;93.20;;;;;;5073876;28;20055;-76
2023/07/29 00:55:01;;;;;;;8.07;3.88;;;20.10;93.30;;;;;;5074688;28;20025;-75
2023/07/29 00:57:28;;;;;;;7.18;3.88;;;20.00;93.60;;;;;;5073922;28;20020;-75
2023/07/29 00:59:54;;;;;;;5.95;3.70;;;20.00;93.80;;;;;;5056946;28;20029;-75
2023/07/29 01:02:20;;;;;;;4.70;3.42;;;20.10;93.90;;;;;;5074560;28;20498;-76
2023/07/29 01:04:45;;;;;;;6.22;3.92;;;20.10;93.90;;;;;;5073561;28;20092;-77
2023/07/29 01:07:19;;;;;;;5.68;3.47;;;20.20;93.90;;;;;;5073683;28;20055;-76
2023/07/29 01:10:07;;;;;;;6.38;3.78;;;20.20;93.80;;;;;;5074423;28;20029;-76
2023/07/29 01:12:47;;;;;;;5.32;3.60;;;20.20;93.90;;;;;;5073668;28;20024;-76
2023/07/29 01:15:24;;;;;;;6.78;3.63;;;20.20;94.00;;;;;;5074341;28;20025;-76
2023/07/29 01:18:14;;;;;;;6.78;3.97;;;20.20;93.90;;;;;;5074300;28;20024;-76
2023/07/29 01:20:42;;;;;;;6.05;3.72;;;20.20;93.90;;;;;;5073936;28;20089;-77
2023/07/29 01:23:08;;;;;;;7.38;4.13;;;20.30;93.80;;;;;;5074166;28;20021;-76
2023/07/29 01:25:33;;;;;;;5.28;3.65;;;20.30;93.80;;;;;;5074139;28;20116;-76
2023/07/29 01:27:59;;;;;;;7.75;3.88;;;20.20;93.70;;;;;;5073961;28;20089;-76
2023/07/29 01:30:32;;;;;;;4.80;3.50;;;20.20;93.80;;;;;;5073874;28;20108;-77
2023/07/29 01:33:30;;;;;;;6.60;3.92;;;20.20;93.90;;;;;;5074053;28;20027;-76
2023/07/29 01:36:02;;;;;;;5.32;3.92;;;20.10;93.90;;;;;;5068859;28;20040;-76
2023/07/29 01:38:31;;;;;;;;;;;20.10;94.10;;;;;;5073365;28;20025;-76
2023/07/29 01:41:01;;;;;;;5.63;3.35;;;20.10;94.00;;;;;;5073883;28;19905;-77
2023/07/29 01:43:27;;;;;;;5.20;3.50;;;20.00;94.10;;;;;;5072829;28;20048;-77
2023/07/29 01:45:53;;;;;;;6.82;3.85;;;20.10;94.10;;;;;;5056147;28;20037;-77
2023/07/29 01:48:19;;;;;;;6.85;4.32;;;20.10;94.00;;;;;;5072815;28;20097;-76
2023/07/29 01:50:44;;;;;;;6.85;4.50;;;20.10;94.10;;;;;;5056190;28;20071;-76
2023/07/29 01:53:10;;;;;;;7.55;4.72;;;20.10;94.20;;;;;;5072599;28;20028;-76
2023/07/29 01:55:35;;;;;;;8.45;5.13;;;20.10;94.40;;;;;;5073571;28;20059;-76
2023/07/29 01:58:01;;;;;;;9.20;4.88;;;20.10;94.40;;;;;;5072505;28;20033;-76
2023/07/29 02:00:27;;;;;;;9.55;4.95;;;20.10;94.50;;;;;;5072595;28;20021;-76
2023/07/29 02:02:52;;;;;;;7.82;4.97;;;20.10;95.00;;;;;;5072429;28;20060;-76
2023/07/29 02:05:18;;;;;;;7.50;4.38;;;20.00;94.70;;;;;;5072518;28;20032;-77
2023/07/29 02:07:43;;;;;;;7.13;4.60;;;20.00;94.80;;;;;;5072463;28;20036;-76
2023/07/29 02:10:09;;;;;;;8.27;4.55;;;20.00;95.00;;;;;;5039300;28;20029;-76
2023/07/29 02:12:35;;;;;;;7.38;4.75;;;20.00;95.00;;;;;;5055896;28;20052;-76
2023/07/29 02:15:00;;;;;;;11.13;5.10;;;20.00;95.00;;;;;;5073341;28;20076;-76
2023/07/29 02:17:26;;;;;;;7.95;4.78;;;20.00;95.10;;;;;;5073235;28;20095;-76
2023/07/29 02:19:52;;;;;;;7.95;4.88;;;20.00;95.10;;;;;;5072320;28;20013;-76
2023/07/29 02:22:18;;;;;;;7.22;4.60;;;20.10;95.10;;;;;;5072359;28;20021;-76
2023/07/29 02:24:44;;;;;;;7.82;4.68;;;20.10;95.10;;;;;;5073039;28;20029;-76
2023/07/29 02:27:10;;;;;;;8.50;5.13;;;20.10;95.10;;;;;;5073083;28;20021;-76
2023/07/29 02:29:36;;;;;;;8.38;5.53;;;20.20;95.00;;;;;;5073005;28;20060;-76
2023/07/29 02:32:02;;;;;;;9.63;5.60;;;20.10;95.00;;;;;;5073126;28;20089;-76
2023/07/29 02:34:28;;;;;;;8.10;5.82;;;20.00;95.10;;;;;;5072095;28;20040;-76
2023/07/29 02:36:54;;;;;;;7.95;5.07;;;19.90;95.20;;;;;;5073111;28;20083;-76
2023/07/29 02:39:20;;;;;;;8.23;5.25;;;19.90;95.30;;;;;;5072019;28;20055;-77
2023/07/29 02:41:45;;;;;;;7.95;5.00;;;19.90;95.20;;;;;;5073038;28;20029;-76
2023/07/29 02:44:11;;;;;;;7.65;4.85;;;19.80;94.80;;;;;;5073029;28;20025;-77
2023/07/29 02:46:37;;;;;;;6.38;4.20;;;19.90;94.80;;;;;;5072064;28;20025;-76
2023/07/29 02:49:03;;;;;;;7.97;4.53;;;19.80;94.60;;;;;;5073036;28;20499;-76
2023/07/29 02:51:30;;;;;;;7.65;4.47;;;19.80;94.30;;;;;;5072961;28;20040;-76
2023/07/29 02:53:56;;;;;;;6.32;4.10;;;19.80;94.30;;;;;;5072941;28;20036;-76
2023/07/29 02:56:21;;;;;;;5.97;4.22;;;19.80;94.30;;;;;;5072900;28;20088;-76
2023/07/29 02:58:47;;;;;;;7.90;3.90;;;19.80;94.50;;;;;;5055339;28;20033;-76
2023/07/29 03:01:13;;;;;;;7.68;4.18;;;19.80;93.90;;;;;;5072868;28;20029;-76
2023/07/29 03:03:39;;;;;;;6.22;4.20;;;19.80;93.90;;;;;;5071991;28;20033;-76
2023/07/29 03:06:07;;;;;;;7.22;4.13;;;19.80;93.90;;;;;;5071805;28;20056;-76
2023/07/29 03:08:33;;;;;;;7.30;4.43;;;19.90;93.90;;;;;;5071774;28;20483;-76
2023/07/29 03:11:04;;;;;;;6.45;4.18;;;19.80;93.70;;;;;;5071904;28;20026;-76
2023/07/29 03:13:30;;;;;;;6.18;4.05;;;19.80;93.60;;;;;;5072776;28;20021;-76
2023/07/29 03:16:17;;;;;;;6.05;4.00;;;19.70;93.60;;;;;;5071828;28;20064;-76
2023/07/29 03:18:43;;;;;;;7.28;4.13;;;19.70;93.60;;;;;;5072767;28;20028;-76
2023/07/29 03:21:09;;;;;;;6.40;4.15;;;19.70;93.60;;;;;;5072683;28;20064;-76
2023/07/29 03:23:36;;;;;;;8.90;4.72;;;19.60;93.60;;;;;;5072619;28;20021;-77
2023/07/29 03:26:09;;;;;;;8.95;4.53;;;19.60;93.60;;;;;;5072676;28;20036;-76
2023/07/29 03:28:36;;;;;;;6.90;4.47;;;19.60;93.50;;;;;;5072347;28;20033;-76
2023/07/29 03:31:02;;;;;;;8.02;4.53;;;19.60;93.50;;;;;;5071542;28;20475;-76
2023/07/29 03:33:28;;;;;;;6.35;4.18;;;19.60;93.50;;;;;;5071604;28;20013;-76
2023/07/29 03:35:54;;;;;;;7.70;4.00;;;19.50;93.40;;;;;;5072978;28;20092;-76
2023/07/29 03:38:20;;;;;;;6.35;4.22;;;19.60;93.40;;;;;;5075302;28;20396;-76
2023/07/29 03:40:47;;;;;;;6.70;4.13;;;19.50;93.30;;;;;;5075253;28;20033;-77
2023/07/29 03:43:13;;;;;;;7.45;4.95;;;19.50;93.30;;;;;;5058638;28;20033;-76
2023/07/29 03:45:39;;;;;;;6.88;4.45;;;19.40;93.40;;;;;;5075181;28;20032;-77
2023/07/29 03:48:05;;;;;;;8.15;4.97;;;19.40;93.40;;;;;;5074895;28;20025;-76
2023/07/29 03:50:35;;;;;;;8.38;5.20;;;19.40;93.50;;;;;;5075176;28;20028;-76
2023/07/29 03:53:00;;;;;;;8.25;5.28;;;19.30;93.50;;;;;;5075930;28;20032;-77
2023/07/29 03:55:26;;;;;;;7.32;4.80;;;19.20;93.60;;;;;;5041800;28;20029;-77
2023/07/29 03:57:51;;;;;;;7.18;5.10;;;19.30;93.70;;;;;;5075926;28;20029;-76
2023/07/29 04:00:17;;;;;;;9.73;5.13;;;19.20;93.70;;;;;;5075778;28;20112;-76
2023/07/29 04:02:45;;;;;;;7.88;4.63;;;19.20;94.10;;;;;;5075752;28;20021;-76
2023/07/29 04:05:11;;;;;;;7.93;5.00;;;19.20;93.80;;;;;;5074680;28;20025;-76
2023/07/29 04:07:37;;;;;;;6.47;4.60;;;19.10;93.80;;;;;;5074483;28;20036;-77
2023/07/29 04:10:04;;;;;;;7.10;4.93;;;19.10;93.80;;;;;;5058099;28;20495;-77
2023/07/29 04:12:30;;;;;;;9.20;4.65;;;19.00;93.70;;;;;;5075757;28;20013;-76
2023/07/29 04:14:56;;;;;;;8.82;4.80;;;19.00;93.80;;;;;;5075499;28;20035;-76
2023/07/29 04:17:21;;;;;;;8.23;4.93;;;19.00;93.80;;;;;;5057979;28;20029;-76
2023/07/29 04:19:47;;;;;;;7.28;4.63;;;19.00;93.80;;;;;;5074379;28;20029;-76
2023/07/29 04:22:14;;;;;;;8.32;4.75;;;19.00;93.70;;;;;;5041238;28;20020;-76
2023/07/29 04:24:39;;;;;;;6.72;4.55;;;18.90;93.60;;;;;;5074292;28;20044;-76
2023/07/29 04:27:05;;;;;;;6.63;4.57;;;18.90;93.50;;;;;;5075262;28;20032;-76
2023/07/29 04:29:31;;;;;;;7.13;5.00;;;18.80;93.70;;;;;;5057376;28;20056;-77
2023/07/29 04:31:57;;;;;;;9.07;4.95;;;18.70;93.70;;;;;;5075159;28;20017;-76
2023/07/29 04:34:23;;;;;;;8.13;4.75;;;18.70;93.90;;;;;;5074207;28;20060;-76
2023/07/29 04:36:48;;;;;;;8.52;5.10;;;18.70;93.90;;;;;;5074216;28;20021;-76
2023/07/29 04:39:14;;;;;;;8.73;4.93;;;18.60;94.00;;;;;;5075051;28;20044;-76
2023/07/29 04:41:40;;;;;;;9.23;4.85;;;18.70;94.00;;;;;;5074968;28;20051;-77
2023/07/29 04:44:07;;;;;;;8.00;4.55;;;18.70;94.10;;;;;;5074991;28;20028;-76
2023/07/29 04:46:33;;;;;;;12.00;4.93;;;18.70;94.10;;;;;;5073917;28;20036;-77
2023/07/29 04:48:59;;;;;;;8.43;4.60;;;18.70;94.00;;;;;;5074784;28;20063;-76
2023/07/29 04:51:24;;;;;;;6.75;4.05;;;18.70;94.00;;;;;;5074084;28;20456;-76
2023/07/29 04:53:50;;;;;;;6.90;4.40;;;18.60;93.90;;;;;;5074797;28;20076;-76
2023/07/29 04:56:16;;;;;;;5.93;3.72;;;18.70;94.00;;;;;;5074708;28;20048;-76
2023/07/29 04:58:41;;;;;;;6.38;3.63;;;18.60;93.90;;;;;;5073685;28;20495;-76
2023/07/29 05:01:07;;;;;;;6.05;3.92;;;18.60;93.90;;;;;;5073706;28;20029;-76
2023/07/29 05:03:33;;;;;;;4.82;3.47;;;18.60;94.00;;;;;;5073654;28;20033;-76
2023/07/29 05:05:59;;;;;;;5.93;3.90;;;18.60;94.00;;;;;;5073642;28;20029;-76
2023/07/29 05:08:25;;;;;;;6.53;4.18;;;18.60;94.00;;;;;;5073467;28;20047;-77
2023/07/29 05:10:52;;;;;;;8.05;4.15;;;18.60;94.30;;;;;;5074452;28;20025;-77
2023/07/29 05:13:18;;;;;;;7.15;3.53;;;18.60;94.00;;;;;;5073476;28;20021;-77
2023/07/29 05:15:44;;;;;;;5.72;3.47;;;18.60;94.10;;;;;;5074362;28;20476;-77
2023/07/29 05:18:10;;;;;;;5.55;3.65;;;18.60;94.00;;;;;;5073365;28;20051;-77
2023/07/29 05:20:37;;;;;;;7.97;3.67;;;18.50;94.10;;;;;;5073307;28;20092;-76
2023/07/29 05:23:02;;;;;;;6.60;3.55;;;18.50;94.20;;;;;;5056708;28;20056;-76
2023/07/29 05:25:29;;;;;;;6.35;3.40;;;18.50;94.10;;;;;;5056455;28;20020;-77
2023/07/29 05:27:54;;;;;;;5.70;3.22;;;18.60;94.10;;;;;;5074015;28;20418;-76
2023/07/29 05:30:20;;;;;;;7.50;3.60;;;18.60;94.10;;;;;;5072965;28;20049;-77
2023/07/29 05:32:46;;;;;;;6.45;3.15;;;18.60;94.10;;;;;;5074010;28;20037;-76
2023/07/29 05:35:11;;;;;;;5.78;3.13;;;18.70;94.10;;;;;;5072911;28;20040;-76
2023/07/29 05:37:41;;;;;;;6.05;3.40;;;18.60;94.10;;;;;;5073922;28;20046;-76
2023/07/29 05:40:08;;;;;;;5.13;3.60;;;18.70;94.10;;;;;;5056175;28;20032;-77
2023/07/29 05:42:34;;;;;;;5.30;3.35;;;18.70;94.10;;;;;;5056488;28;20032;-77
2023/07/29 05:45:00;;;;;;;5.50;3.72;;;18.70;94.00;;;;;;5072786;28;20556;-76
2023/07/29 05:47:26;;;;;;;5.38;3.40;;;18.70;94.20;;;;;;5072797;28;20032;-76
2023/07/29 05:49:52;;;;;;;6.68;3.28;;;18.70;94.20;;;;;;5072700;28;20025;-77
2023/07/29 05:52:18;;;;;;;7.13;3.50;;;18.70;93.90;;;;;;5072973;28;20040;-77
2023/07/29 05:54:44;;;;;;;5.15;3.17;;;18.60;94.00;;;;;;5072731;28;20029;-77
2023/07/29 05:57:11;;;;;;;7.10;3.22;;;18.60;93.80;;;;;;5056104;28;20036;-77
2023/07/29 05:59:37;;;;;;;5.78;3.47;;;18.50;93.90;;;;;;5055739;28;20029;-76
2023/07/29 06:02:03;;;;;;;6.32;3.47;;;18.50;93.90;;;;;;5072640;28;20058;-77
2023/07/29 06:04:28;;;;;;;8.25;3.42;;;18.60;93.90;;;;;;5073479;28;20021;-77
2023/07/29 06:06:55;;;;;;;6.40;3.13;;;18.60;94.00;;;;;;5073475;28;20036;-77
2023/07/29 06:09:25;;;;;;;5.60;3.38;;;18.60;94.10;;;;;;5072450;28;20072;-77
2023/07/29 06:11:51;;;;;;;5.68;3.33;;;18.60;94.00;;;;;;5072566;28;20013;-77
2023/07/29 06:14:17;;;;;;;6.78;3.35;;;18.70;93.90;;;;;;5073282;28;20040;-77
2023/07/29 06:16:42;;;;;;;8.98;3.80;;;18.70;93.90;;;;;;5072329;28;20032;-77
2023/07/29 06:19:08;;;;;;;4.97;3.10;;;18.70;94.00;;;;;;5073312;28;20059;-77
2023/07/29 06:21:34;;;;;;;5.28;3.35;;;18.80;94.00;;;;;;5073277;28;20040;-77
2023/07/29 06:24:00;;;;;;;6.07;3.60;;;18.90;94.00;;;;;;5072240;28;20404;-77
2023/07/29 06:26:26;;;;;;;5.90;3.33;;;19.00;94.10;;;;;;5072039;28;20037;-78
2023/07/29 06:28:51;;;;;;;8.90;2.92;;;19.00;94.00;;;;;;5072878;28;20052;-77
2023/07/29 06:31:17;;;;;;;5.07;3.20;;;19.00;93.40;;;;;;5055632;28;20025;-78
2023/07/29 06:33:43;;;;;;;7.95;3.10;;;19.00;94.00;;;;;;5072108;28;20032;-78
2023/07/29 06:36:08;;;;;;;5.15;3.25;;;19.10;94.10;;;;;;5072235;28;20055;-77
2023/07/29 06:38:34;;;;;;;4.93;3.10;;;19.20;94.00;;;;;;5055551;28;20048;-77
2023/07/29 06:40:59;;;;;;;4.97;3.10;;;19.20;93.80;;;;;;5055514;28;20033;-78
2023/07/29 06:43:25;;;;;;;6.38;3.17;;;19.30;93.70;;;;;;5072114;28;20029;-78
2023/07/29 06:45:51;;;;;;;5.47;2.92;;;19.30;93.40;;;;;;5055585;28;20059;-77
2023/07/29 06:48:18;;;;;;;4.50;2.75;;;19.40;93.40;;;;;;5055334;28;20025;-77
2023/07/29 06:50:45;;;;;;;4.90;2.92;;;19.40;93.30;;;;;;5071959;28;20045;-77
2023/07/29 06:53:10;;;;;;;8.23;3.38;;;19.40;93.20;;;;;;5072015;28;20044;-77
2023/07/29 06:55:36;;;;;;;8.15;3.22;;;19.40;92.90;;;;;;5055344;28;20055;-78
2023/07/29 06:58:02;;;;;;;8.05;3.50;;;19.40;93.10;;;;;;5055245;28;20033;-77
2023/07/29 07:00:27;;;;;;;6.45;3.45;;;19.40;93.10;;;;;;5055224;28;20054;-77
2023/07/29 07:02:53;;;;;;;6.63;4.07;;;19.40;93.20;;;;;;5071947;28;20029;-77
2023/07/29 07:05:19;;;;;;;5.93;3.65;;;19.40;93.00;;;;;;5071766;28;20025;-78
2023/07/29 07:07:44;;;;;;;6.28;3.72;;;19.40;92.90;;;;;;5072764;28;20029;-78
2023/07/29 07:10:10;;;;;;;8.20;4.53;;;19.40;92.80;;;;;;5055358;28;20089;-77
2023/07/29 07:12:36;;;;;;;6.60;3.83;;;19.50;92.90;;;;;;5059047;28;20079;-77
2023/07/29 07:15:01;;;;;;;7.78;4.00;;;19.40;93.00;;;;;;5075713;28;20055;-77
2023/07/29 07:17:27;;;;;;;7.50;4.72;;;19.60;93.40;;;;;;5075867;28;20029;-77
2023/07/29 07:19:52;;;;;;;6.30;4.03;;;19.60;93.40;;;;;;5075650;28;20080;-77
2023/07/29 07:22:18;;;;;;;7.07;4.35;;;19.70;93.10;;;;;;5076620;28;20372;-76
2023/07/29 07:24:44;;;;;;;6.40;4.18;;;19.80;92.70;;;;;;5075481;28;20040;-77
2023/07/29 07:27:10;;;;;;;5.72;3.53;;;19.80;92.90;;;;;;5075533;28;20047;-76
2023/07/29 07:29:35;;;;;;;4.95;3.80;;;19.90;92.80;;;;;;5075092;28;20052;-76
2023/07/29 07:32:01;;;;;;;5.82;3.33;;;20.00;93.00;;;;;;5058717;28;20025;-77
2023/07/29 07:34:26;;;;;;;6.22;3.55;;;20.10;92.90;;;;;;5076206;28;20104;-77
2023/07/29 07:36:52;;;;;;;6.50;3.70;;;20.10;92.50;;;;;;5076224;28;20029;-77
2023/07/29 07:39:18;;;;;;;5.57;3.50;;;20.10;92.30;;;;;;5075211;28;20040;-77
2023/07/29 07:41:43;;;;;;;4.75;3.03;;;20.00;92.10;;;;;;5075113;28;20056;-77
2023/07/29 07:44:09;;;;;;;5.28;3.30;;;20.00;92.20;;;;;;5075087;28;20033;-77
2023/07/29 07:46:35;;;;;;;5.88;2.80;;;20.00;92.20;;;;;;5075113;28;20040;-77
2023/07/29 07:49:00;;;;;;;4.25;2.80;;;20.00;92.30;;;;;;5075937;28;20033;-77
2023/07/29 07:51:26;;;;;;;5.55;2.45;;;20.00;92.50;;;;;;5075144;28;20029;-77
2023/07/29 07:53:51;;;;;;;4.40;2.95;;;20.10;92.80;;;;;;5041762;28;20028;-78
2023/07/29 07:56:17;;;;;;;5.75;2.85;;;20.10;92.60;;;;;;5074964;28;20041;-77
2023/07/29 07:58:43;;;;;;;4.68;3.05;;;20.20;93.00;;;;;;5074782;28;20068;-77
2023/07/29 08:01:09;;;;;;;4.45;2.95;;;20.30;92.60;;;;;;5075776;28;20089;-78
2023/07/29 08:03:35;;;;;;;6.13;3.20;;;20.20;92.20;;;;;;5074729;28;20025;-77
2023/07/29 08:06:02;;;;;;;3.78;3.00;;;20.20;92.50;;;;;;5075671;28;20047;-77
2023/07/29 08:08:28;;;;;;;4.13;3.00;;;20.20;92.00;;;;;;5057926;28;20033;-77
2023/07/29 08:10:55;;;;;;;8.25;2.92;;;20.10;92.10;;;;;;5074606;28;20024;-77
2023/07/29 08:13:22;;;;;;;3.85;3.05;;;20.10;92.40;;;;;;5058166;28;20102;-77
2023/07/29 08:15:49;;;;;;;6.43;3.50;;;20.10;92.00;;;;;;5075522;28;20100;-77
2023/07/29 08:18:15;;;;;;;4.95;3.10;;;20.10;92.00;;;;;;5074435;28;20029;-77
2023/07/29 08:20:41;;;;;;;5.40;3.50;;;20.10;92.70;;;;;;5074495;28;20025;-77
2023/07/29 08:23:07;;;;;;;4.25;3.00;;;20.20;92.40;;;;;;5074154;28;20051;-77
2023/07/29 08:25:32;;;;;;;4.93;3.63;;;20.20;92.40;;;;;;5074354;28;20029;-77
2023/07/29 08:27:58;;;;;;;5.30;3.30;;;20.30;91.60;;;;;;5074338;28;20037;-77
2023/07/29 08:30:24;;;;;;;3.88;3.15;;;20.20;91.50;;;;;;5075147;28;20045;-77
2023/07/29 08:32:50;;;;;;;4.93;3.47;;;20.30;91.60;;;;;;5074254;28;20029;-76
2023/07/29 08:35:15;;;;;;;4.45;3.42;;;20.40;91.40;;;;;;5074101;28;20017;-77
2023/07/29 08:37:41;;;;;;;7.20;3.88;;;20.50;91.20;;;;;;5057516;28;20028;-77
2023/07/29 08:40:07;;;;;;;5.63;3.42;;;20.60;91.30;;;;;;5074137;28;20036;-77
2023/07/29 08:42:34;;;;;;;4.32;3.60;;;20.70;91.40;;;;;;5057419;28;20028;-76
2023/07/29 08:45:11;;;;;;;6.05;3.80;;;20.80;91.10;;;;;;5074019;28;20024;-77
2023/07/29 08:47:36;;;;;;;4.30;3.88;;;20.80;90.20;;;;;;5074915;28;20025;-77
2023/07/29 08:50:03;;;;;;;4.68;3.70;;;20.80;90.40;;;;;;5040647;28;20033;-77
2023/07/29 08:52:31;;;;;;;6.25;3.83;;;20.80;90.80;;;;;;5040796;28;20021;-77
2023/07/29 08:54:58;;;;;;;4.70;3.22;;;20.80;90.40;;;;;;5074775;28;20017;-77
2023/07/29 08:57:24;;;;;;;4.28;3.20;;;20.90;90.60;;;;;;5057162;28;20097;-77
2023/07/29 08:59:50;;;;;;;4.05;2.90;;;20.90;90.30;;;;;;5074584;28;20044;-77
2023/07/29 09:02:15;;;;;;;5.55;3.03;;;21.00;90.20;;;;;;5073693;28;20116;-76
2023/07/29 09:04:42;;;;;;;2.92;2.28;;;21.00;89.30;;;;;;5074566;28;20033;-76
2023/07/29 09:07:08;;;;;;;2.88;2.08;;;20.90;89.00;;;;;;5074517;28;20088;-76
2023/07/29 09:09:34;;;;;;;3.88;2.10;;;20.90;90.00;;;;;;5073499;28;20047;-77
2023/07/29 09:11:59;;;;;;;2.92;2.05;;;21.00;90.20;;;;;;5056732;28;20041;-76
2023/07/29 09:14:25;;;;;;;3.30;2.25;;;21.10;90.30;;;;;;5073452;28;20036;-77
2023/07/29 09:16:51;;;;;;;3.85;2.30;;;21.20;89.50;;;;;;5056659;28;20029;-77
2023/07/29 09:19:17;;;;;;;3.70;2.35;;;21.20;90.10;;;;;;5074230;28;20029;-77
2023/07/29 09:21:45;;;;;;;4.63;2.05;;;21.30;89.40;;;;;;5073353;28;20037;-78
2023/07/29 09:24:15;;;;;;;2.58;2.03;;;21.40;89.80;;;;;;5074216;28;20027;-78
2023/07/29 09:26:48;;;;;;;3.17;1.92;;;21.50;89.60;;;;;;5074144;28;20080;-77
2023/07/29 09:29:13;;;;;;;3.20;1.88;;;21.50;88.00;;;;;;5073883;28;20051;-78
2023/07/29 09:31:39;;;;;;;2.75;1.75;;;21.50;89.40;;;;;;5073031;28;20033;-77
2023/07/29 09:34:05;;;;;;;3.33;1.85;;;21.60;90.00;;;;;;5073271;28;20025;-78
2023/07/29 09:36:33;;;;;;;3.05;1.95;;;21.70;90.10;;;;;;5073954;28;20024;-77
2023/07/29 09:38:58;;;;;;;3.78;1.73;;;21.80;87.90;;;;;;5073900;28;20045;-77
2023/07/29 09:41:26;;;;;;;1.67;1.17;;;21.90;87.40;;;;;;5056303;28;20035;-78
2023/07/29 09:44:00;;;;;;;3.35;1.83;;;21.90;84.80;;;;;;5072817;28;20017;-78
2023/07/29 09:46:33;;;;;;;2.50;1.50;;;22.00;85.80;;;;;;5056502;28;20037;-77
2023/07/29 09:48:59;;;;;;;3.00;1.30;;;22.10;88.20;;;;;;5072733;28;20044;-78
2023/07/29 09:51:24;;;;;;;1.88;1.33;;;22.20;87.20;;;;;;5073726;28;20091;-78
2023/07/29 09:53:52;;;;;;;1.75;1.30;;;22.20;83.90;;;;;;5072745;28;20031;-78
2023/07/29 09:56:18;;;;;;;1.73;1.25;;;22.10;84.60;;;;;;5073647;28;20028;-78
2023/07/29 09:58:47;;;;;;;1.92;1.30;;;22.10;86.30;;;;;;5073509;28;20029;-78
2023/07/29 10:01:14;;;;;;;1.80;1.20;;;22.20;85.60;;;;;;5072784;28;20032;-79
2023/07/29 10:03:40;;;;;;;2.70;1.42;;;22.30;86.40;;;;;;5072544;28;20032;-78
2023/07/29 10:06:07;;;;;;;3.40;1.60;;;22.50;87.00;;;;;;5072500;28;20032;-78
2023/07/29 10:08:38;;;;;;;2.85;1.33;;;22.50;85.40;;;;;;5073347;28;20104;-77
2023/07/29 10:11:06;;;;;;;2.00;1.13;;;22.50;84.00;;;;;;5073496;28;20017;-78
2023/07/29 10:13:32;;;;;;;2.25;1.27;;;22.40;82.40;;;;;;5072461;28;20074;-77
2023/07/29 10:15:58;;;;;;;1.65;1.17;;;22.30;82.90;;;;;;5073473;28;20025;-78
2023/07/29 10:18:24;;;;;;;2.10;1.30;;;22.20;82.50;;;;;;5072366;28;20029;-78
2023/07/29 10:20:52;;;;;;;2.33;1.20;;;22.20;83.80;;;;;;5072382;28;20031;-78
2023/07/29 10:23:18;;;;;;;2.45;1.30;;;22.20;83.20;;;;;;5072180;28;20029;-78
2023/07/29 10:25:54;;;;;;;2.38;1.13;;;22.20;82.60;;;;;;5072284;28;20037;-77
2023/07/29 10:28:25;;;;;;;2.92;1.25;;;22.20;83.40;;;;;;5073055;28;20021;-78
2023/07/29 10:30:51;;;;;;;1.83;1.17;;;22.20;82.40;;;;;;5055876;28;20056;-77
2023/07/29 10:33:17;;;;;;;2.22;1.20;;;22.30;83.50;;;;;;5073113;28;20047;-77
2023/07/29 10:35:43;;;;;;;1.83;1.20;;;22.30;82.70;;;;;;5072177;28;20076;-78
2023/07/29 10:38:47;;;;;;;3.78;1.38;;;22.40;84.00;;;;;;5055663;28;20029;-78
2023/07/29 10:41:12;;;;;;;2.10;1.52;;;22.50;82.90;;;;;;5072516;28;20032;-78
2023/07/29 10:43:38;;;;;;;3.92;1.40;;;22.60;82.70;;;;;;5073036;28;20029;-77
2023/07/29 10:46:17;;;;;;;1.95;1.25;;;22.70;83.20;;;;;;5059100;28;20033;-78
2023/07/29 10:48:51;;;;;;;2.10;1.33;;;22.70;83.10;;;;;;5076032;28;20043;-79
2023/07/29 10:51:24;;;;;;;2.42;1.50;;;22.80;81.30;;;;;;5076157;28;20025;-78
2023/07/29 10:53:54;;;;;;;3.20;1.75;;;22.90;81.80;;;;;;5077055;28;20021;-78
2023/07/29 10:56:32;;;;;;;3.38;1.90;;;23.00;82.40;;;;;;5076109;28;20021;-78
2023/07/29 10:59:19;;;;;;;3.35;1.80;;;23.10;82.30;;;;;;5075942;28;20025;-78
2023/07/29 11:01:57;;;;;;;2.05;1.65;;;23.20;82.30;;;;;;5077153;28;20100;-78
2023/07/29 11:04:29;;;;;;;2.70;1.63;;;23.30;84.00;;;;;;5076833;28;20071;-78
2023/07/29 11:07:04;;;;;;;2.88;1.50;;;23.40;83.50;;;;;;5075782;28;20029;-78
2023/07/29 11:10:06;;;;;;;3.10;1.55;;;23.40;81.60;;;;;;5075595;28;20083;-78
2023/07/29 11:12:45;;;;;;;2.92;1.50;;;23.40;80.80;;;;;;5076378;28;20041;-79
2023/07/29 11:15:11;;;;;;;2.92;1.70;;;23.20;80.10;;;;;;5075712;28;20024;-77
2023/07/29 11:17:42;;;;;;;3.03;2.20;;;23.20;81.90;;;;;;5076624;28;20025;-79
2023/07/29 11:20:09;;;;;;;2.33;1.80;;;23.20;81.10;;;;;;5075661;28;20021;-79
2023/07/29 11:22:36;;;;;;;4.93;2.03;;;23.20;81.20;;;;;;5075793;28;20480;-78
2023/07/29 11:25:02;;;;;;;3.03;1.80;;;23.10;81.30;;;;;;5075610;28;20025;-77
2023/07/29 11:27:27;;;;;;;2.70;1.95;;;23.00;81.10;;;;;;5076448;28;20028;-78
2023/07/29 11:30:07;;;;;;;3.20;1.70;;;23.00;82.10;;;;;;5075120;28;20108;-78
2023/07/29 11:32:34;;;;;;;2.90;1.90;;;22.80;81.60;;;;;;5075430;28;20045;-78
2023/07/29 11:35:12;;;;;;;2.97;1.80;;;22.80;82.60;;;;;;5058764;28;20033;-78
2023/07/29 11:37:39;;;;;;;2.00;1.70;;;22.80;83.20;;;;;;5076374;28;20043;-79
2023/07/29 11:40:07;;;;;;;2.65;1.50;;;22.80;84.60;;;;;;5076234;28;20021;-77
2023/07/29 11:42:34;;;;;;;2.63;1.48;;;22.70;82.50;;;;;;5075182;28;20017;-77
2023/07/29 11:45:00;;;;;;;1.73;1.45;;;22.60;82.10;;;;;;5075126;28;20096;-78
2023/07/29 11:47:26;;;;;;;2.40;1.60;;;22.60;82.10;;;;;;5074995;28;20120;-78
2023/07/29 11:49:52;;;;;;;2.70;1.60;;;22.60;81.30;;;;;;5075076;28;20033;-78
2023/07/29 11:52:19;;;;;;;2.55;1.77;;;22.60;82.60;;;;;;5074934;28;20041;-78
2023/07/29 11:54:46;;;;;;;3.78;1.90;;;22.60;82.50;;;;;;5074995;28;20088;-78
2023/07/29 11:57:13;;;;;;;2.60;1.63;;;22.70;83.50;;;;;;5075104;28;20072;-77
2023/07/29 11:59:39;;;;;;;2.33;1.52;;;22.70;83.40;;;;;;5074890;28;20063;-78
2023/07/29 12:02:16;;;;;;;2.85;1.70;;;22.80;83.00;;;;;;5074718;28;20059;-79
2023/07/29 12:04:43;;;;;;;4.60;2.03;;;22.90;82.20;;;;;;5074776;28;20043;-79
2023/07/29 12:07:09;;;;;;;3.85;2.30;;;22.90;82.40;;;;;;5075635;28;20028;-79
2023/07/29 12:09:36;;;;;;;4.63;2.30;;;23.00;82.70;;;;;;5075588;28;20044;-79
2023/07/29 12:12:06;;;;;;;2.60;1.60;;;23.10;84.00;;;;;;5075577;28;20042;-79
2023/07/29 12:14:32;;;;;;;1.90;1.42;;;23.30;83.60;;;;;;5075548;28;20084;-79
2023/07/29 12:17:03;;;;;;;2.15;1.42;;;23.50;83.80;;;;;;5075539;28;20051;-78
2023/07/29 12:19:34;;;;;;;2.33;1.70;;;23.70;82.40;;;;;;5074515;28;20021;-79
2023/07/29 12:22:00;;;;;;;2.92;1.80;;;23.80;81.20;;;;;;5075424;28;20049;-80
2023/07/29 12:24:25;;;;;;;2.63;1.67;;;23.70;79.40;;;;;;5074400;28;20025;-79
2023/07/29 12:26:51;;;;;;;2.47;1.45;;;23.70;80.70;;;;;;5075299;28;20435;-79
2023/07/29 12:29:22;;;;;;;3.22;1.20;;;23.70;81.00;;;;;;5057320;28;20048;-79
2023/07/29 12:31:48;;;;;;;1.48;1.30;;;23.60;80.60;;;;;;5075221;28;20017;-80
2023/07/29 12:34:20;;;;;;;5.53;1.60;;;23.60;81.00;;;;;;5075142;28;20055;-82
2023/07/29 12:36:50;;;;;;;7.82;2.17;;;23.40;83.70;;;;;;5057708;28;20021;-81
2023/07/29 12:39:24;;;;;;;2.20;0.73;;;23.10;85.50;;;;;;5058313;28;20031;-82
2023/07/29 12:41:51;;;;;;;2.55;1.08;;;22.60;82.50;;;;;;5058498;28;20025;-82
2023/07/29 12:44:17;;;;;;;4.28;1.45;;;22.30;83.90;;;;;;5075043;28;20036;-82
2023/07/29 12:46:43;;;;;;;1.70;0.95;;;22.10;85.20;;;;;;5074247;28;20025;-81
2023/07/29 12:49:09;;;;;;;4.93;1.70;;;21.90;86.10;;;;;;5057277;28;20029;-81